Beijing, Beijing

11:38 PM CST on October 23, 2014 (GMT +0800)
Beijing Capital | Change Station
CLOSE
Current Station
Airport
Location: Beijing,
Elevation: 115 ft
Nearby Weather Stations

Elev 115 ft 40.07 °N, 116.59 °E | Updated 8 minutes ago

Mist
Mist
48 °F
Feels Like 48 °F
N
2
Wind Variable Wind from Variable

Today
High -- | Low -- °F
--% Chance of Precip.
Yesterday
High -- | Low -- °F
Precip. -- in
6:32 AM 5:23 PM
Waning Crescent, 0% visible
Pressure 29.89 in
Visibility 2.2 miles
Clouds
Dew Point 46 °F
Humidity 93%
Rainfall 0.00 in
Snow Depth Not available.
UV Not available.
Pollen Not available.
Air Quality Not available.
Flu Activity Not available.
METAR ZBAA 231530Z VRB01MPS 3500 R01/1200V1800D R36R/P2000N R36L/P2000N BR NSC 09/08 Q1012 NOSIG

More Conditions Fewer Conditions

Pressure 29.89 in
Visibility 2.2 miles
Clouds
Dew Point 46 °F
Humidity 93%
Rainfall 0.00 in
Snow Depth Not available.
UV Not available.
Pollen Not available.
Air Quality Not available.
Flu Activity Not available.
METAR ZBAA 231530Z VRB01MPS 3500 R01/1200V1800D R36R/P2000N R36L/P2000N BR NSC 09/08 Q1012 NOSIG

More Conditions Fewer Conditions

10-Day Weather Forecast

Almanac

Astronomy

Oct. 23, 2014 Rise Set
Actual Time 6:32 AM CST 5:23 PM CST
Civil Twilight 6:04 AM CST 5:50 PM CST
Nautical Twilight 5:32 AM CST 6:22 PM CST
Astronomical Twilight 5:01 AM CST 6:53 PM CST
Moon 5:38 AM CST 5:04 PM CST
Length of Visible Light 11h 46m
Length of Day
10h 51m
Tomorrow will be 2m 28s shorter.
Waning Crescent, 0% of the Moon is Illuminated
Today
Waning Crescent
Oct 23
New
Oct 30
First Quarter
Nov 6
Full
Nov 14
Last Quarter

Today's Extremes

Country Highs Country Lows

Community

WunderPhotos

Upload Photos

1,764,285 photos uploaded!

Nearby

Snow Depth

Not available.

Earthquake Activity

City Distance Mag. Time & Date
No recent earthquake activity has been reported nearby.
Minimum magnitude displayed is 2.5.

Coastal Water Temperatures

Place Temperature
No Stations Reporting

Nearby Weather Stations